Portada
METAR-TAF:

METAR-TAF

Aeropuertos :

El Salvador, El Salvador

Aeropuerto Internacional de El Salvador

latitud: 13-26N, longitud: 089-03W, altitud: 25 m

Observación

El informe se hizo hace 1 hora y 9 minutos, a las 18:50 UTC
Viento 16 kt del norte-noreste con ráfagas de 28 kt, variando entre norte y noreste
Temperatura 33°C
Humedad 32%
Presión 1012 hPa
Visibilidad 10 km o más
sin nubes por debajo de 1500 m y sin presencia de cumulonimbus.

METAR: MSLP 181850Z 02016G28KT 350V050 CAVOK 33/14 Q1011 A2988 NOSIG

Hora: 13:59 (19:59 UTC)

Pronóstico

El informe se hizo hace 4 horas y 34 minutos, a las 15:25 UTC
Pronóstico válido del 18 a las 18 UTC al 19 a las 18 UTC
Viento 10 kt del norte con ráfagas de 20 kt
Visibilidad 10 km o más
sin nubes por debajo de 1500 m y sin presencia de cumulonimbus.

TAF: MSLP 181525Z 1818/1918 01010G20KT CAVOK TX34/1819Z TN22/1912Z

Observaciones y pronósticos meteorológicos de más de 4000 aeropuertos (mensajes METAR y TAF).

Los puntos amarillos y rojos representan las estaciones disponibles.

Ponga el ratón en el punto deseado para ver el nombre de la estación.

Haga clic para ver las observaciones y los pronósticos meteorológicos.

Para cambiar el mapa : haga clic en los botones verdes con una cruz de color negro para hacer un zoom, en el botón verde con un guión para alejar o en las flechas verdes para mapas adyacentes.


METAR-TAF: